sensor_id;sensor_type;location;lat;lon;timestamp;P1;durP1;ratioP1;P2;durP2;ratioP2
14890;SDS011;7537;48.014;11.590;2023-02-28T00:04:26;3.96;;;3.50;;
14890;SDS011;7537;48.014;11.590;2023-02-28T00:09:53;3.69;;;3.78;;
14890;SDS011;7537;48.014;11.590;2023-02-28T00:15:20;3.64;;;3.33;;
14890;SDS011;7537;48.014;11.590;2023-02-28T00:20:48;2.74;;;2.83;;
14890;SDS011;7537;48.014;11.590;2023-02-28T00:26:15;4.43;;;3.72;;
14890;SDS011;7537;48.014;11.590;2023-02-28T00:31:43;5.04;;;3.44;;
14890;SDS011;7537;48.014;11.590;2023-02-28T00:37:10;4.00;;;2.91;;
14890;SDS011;7537;48.014;11.590;2023-02-28T00:42:37;4.46;;;3.51;;
14890;SDS011;7537;48.014;11.590;2023-02-28T00:48:08;2.83;;;2.88;;
14890;SDS011;7537;48.014;11.590;2023-02-28T00:53:35;3.57;;;3.59;;
14890;SDS011;7537;48.014;11.590;2023-02-28T00:59:06;4.36;;;3.51;;
14890;SDS011;7537;48.014;11.590;2023-02-28T01:04:33;4.75;;;3.44;;
14890;SDS011;7537;48.014;11.590;2023-02-28T01:10:00;2.54;;;2.62;;
14890;SDS011;7537;48.014;11.590;2023-02-28T01:15:28;3.51;;;3.07;;
14890;SDS011;7537;48.014;11.590;2023-02-28T01:20:55;3.21;;;3.16;;
14890;SDS011;7537;48.014;11.590;2023-02-28T01:26:22;3.76;;;3.69;;
14890;SDS011;7537;48.014;11.590;2023-02-28T01:31:50;3.29;;;3.14;;
14890;SDS011;7537;48.014;11.590;2023-02-28T01:37:17;3.04;;;3.17;;
14890;SDS011;7537;48.014;11.590;2023-02-28T01:42:47;2.96;;;3.06;;
14890;SDS011;7537;48.014;11.590;2023-02-28T01:48:14;2.88;;;2.97;;
14890;SDS011;7537;48.014;11.590;2023-02-28T01:53:42;3.80;;;3.78;;
14890;SDS011;7537;48.014;11.590;2023-02-28T01:59:18;3.55;;;3.44;;
14890;SDS011;7537;48.014;11.590;2023-02-28T02:04:53;3.64;;;3.74;;
14890;SDS011;7537;48.014;11.590;2023-02-28T02:10:24;4.97;;;3.74;;
14890;SDS011;7537;48.014;11.590;2023-02-28T02:16:02;5.77;;;4.31;;
14890;SDS011;7537;48.014;11.590;2023-02-28T02:27:22;3.35;;;3.49;;
14890;SDS011;7537;48.014;11.590;2023-02-28T02:32:58;3.67;;;3.60;;
14890;SDS011;7537;48.014;11.590;2023-02-28T02:38:31;5.21;;;4.15;;
14890;SDS011;7537;48.014;11.590;2023-02-28T02:44:02;7.46;;;4.16;;
14890;SDS011;7537;48.014;11.590;2023-02-28T02:49:31;4.84;;;4.20;;
14890;SDS011;7537;48.014;11.590;2023-02-28T02:54:59;4.99;;;4.73;;
14890;SDS011;7537;48.014;11.590;2023-02-28T03:00:37;4.71;;;4.27;;
14890;SDS011;7537;48.014;11.590;2023-02-28T03:06:06;5.33;;;4.00;;
14890;SDS011;7537;48.014;11.590;2023-02-28T03:11:35;3.84;;;3.73;;
14890;SDS011;7537;48.014;11.590;2023-02-28T03:17:08;4.93;;;4.64;;
14890;SDS011;7537;48.014;11.590;2023-02-28T03:22:51;5.41;;;4.29;;
14890;SDS011;7537;48.014;11.590;2023-02-28T03:28:19;6.61;;;4.78;;
14890;SDS011;7537;48.014;11.590;2023-02-28T03:33:51;3.86;;;3.86;;
14890;SDS011;7537;48.014;11.590;2023-02-28T03:39:22;3.61;;;3.69;;
14890;SDS011;7537;48.014;11.590;2023-02-28T03:44:51;7.07;;;4.01;;
14890;SDS011;7537;48.014;11.590;2023-02-28T03:50:21;5.03;;;4.89;;
14890;SDS011;7537;48.014;11.590;2023-02-28T03:55:50;5.77;;;5.41;;
14890;SDS011;7537;48.014;11.590;2023-02-28T04:01:23;6.66;;;5.49;;
14890;SDS011;7537;48.014;11.590;2023-02-28T04:06:52;6.71;;;5.89;;
14890;SDS011;7537;48.014;11.590;2023-02-28T04:12:19;6.38;;;5.17;;
14890;SDS011;7537;48.014;11.590;2023-02-28T04:17:47;4.77;;;4.11;;
14890;SDS011;7537;48.014;11.590;2023-02-28T04:23:14;6.74;;;4.77;;
14890;SDS011;7537;48.014;11.590;2023-02-28T04:28:42;5.33;;;4.39;;
14890;SDS011;7537;48.014;11.590;2023-02-28T04:34:09;6.71;;;5.35;;
14890;SDS011;7537;48.014;11.590;2023-02-28T04:39:37;5.27;;;4.36;;
14890;SDS011;7537;48.014;11.590;2023-02-28T04:45:05;3.56;;;3.61;;
14890;SDS011;7537;48.014;11.590;2023-02-28T04:50:33;5.13;;;4.56;;
14890;SDS011;7537;48.014;11.590;2023-02-28T04:56:00;4.61;;;4.62;;
14890;SDS011;7537;48.014;11.590;2023-02-28T05:01:32;4.72;;;4.63;;
14890;SDS011;7537;48.014;11.590;2023-02-28T05:07:00;5.84;;;5.14;;
14890;SDS011;7537;48.014;11.590;2023-02-28T05:12:28;5.82;;;5.21;;
14890;SDS011;7537;48.014;11.590;2023-02-28T05:17:55;8.75;;;5.34;;
14890;SDS011;7537;48.014;11.590;2023-02-28T05:23:23;4.58;;;4.33;;
14890;SDS011;7537;48.014;11.590;2023-02-28T05:28:50;10.34;;;8.50;;
14890;SDS011;7537;48.014;11.590;2023-02-28T05:34:18;7.07;;;6.46;;
14890;SDS011;7537;48.014;11.590;2023-02-28T05:39:45;8.67;;;6.06;;
14890;SDS011;7537;48.014;11.590;2023-02-28T05:45:12;13.07;;;7.37;;
14890;SDS011;7537;48.014;11.590;2023-02-28T05:50:40;16.00;;;13.56;;
14890;SDS011;7537;48.014;11.590;2023-02-28T05:56:07;16.61;;;12.86;;
14890;SDS011;7537;48.014;11.590;2023-02-28T06:01:48;19.18;;;12.15;;
14890;SDS011;7537;48.014;11.590;2023-02-28T06:07:15;14.94;;;12.04;;
14890;SDS011;7537;48.014;11.590;2023-02-28T06:12:43;16.57;;;11.63;;
14890;SDS011;7537;48.014;11.590;2023-02-28T06:18:11;14.61;;;11.00;;
14890;SDS011;7537;48.014;11.590;2023-02-28T06:23:43;15.74;;;12.36;;
14890;SDS011;7537;48.014;11.590;2023-02-28T06:29:11;12.14;;;9.99;;
14890;SDS011;7537;48.014;11.590;2023-02-28T06:34:38;12.40;;;9.49;;
14890;SDS011;7537;48.014;11.590;2023-02-28T06:40:07;16.35;;;10.76;;
14890;SDS011;7537;48.014;11.590;2023-02-28T06:45:35;9.36;;;7.21;;
14890;SDS011;7537;48.014;11.590;2023-02-28T06:51:07;16.48;;;10.19;;
14890;SDS011;7537;48.014;11.590;2023-02-28T06:56:34;15.98;;;10.19;;
14890;SDS011;7537;48.014;11.590;2023-02-28T07:02:11;14.29;;;11.49;;
14890;SDS011;7537;48.014;11.590;2023-02-28T07:07:38;17.27;;;11.14;;
14890;SDS011;7537;48.014;11.590;2023-02-28T07:13:07;17.88;;;13.06;;
14890;SDS011;7537;48.014;11.590;2023-02-28T07:18:34;14.04;;;11.12;;
14890;SDS011;7537;48.014;11.590;2023-02-28T07:24:05;22.10;;;13.37;;
14890;SDS011;7537;48.014;11.590;2023-02-28T07:29:33;19.05;;;13.57;;
14890;SDS011;7537;48.014;11.590;2023-02-28T07:35:00;14.09;;;7.68;;
14890;SDS011;7537;48.014;11.590;2023-02-28T07:40:27;19.71;;;12.56;;
14890;SDS011;7537;48.014;11.590;2023-02-28T07:45:55;21.89;;;13.97;;
14890;SDS011;7537;48.014;11.590;2023-02-28T07:51:22;18.75;;;11.84;;
14890;SDS011;7537;48.014;11.590;2023-02-28T07:56:50;15.23;;;11.62;;
14890;SDS011;7537;48.014;11.590;2023-02-28T08:02:22;12.46;;;7.57;;
14890;SDS011;7537;48.014;11.590;2023-02-28T08:07:49;21.91;;;15.95;;
14890;SDS011;7537;48.014;11.590;2023-02-28T08:13:16;21.59;;;16.36;;
14890;SDS011;7537;48.014;11.590;2023-02-28T08:18:44;21.69;;;16.29;;
14890;SDS011;7537;48.014;11.590;2023-02-28T08:24:11;23.45;;;15.51;;
14890;SDS011;7537;48.014;11.590;2023-02-28T08:29:39;19.84;;;15.29;;
14890;SDS011;7537;48.014;11.590;2023-02-28T08:35:13;13.06;;;8.64;;
14890;SDS011;7537;48.014;11.590;2023-02-28T08:40:40;17.78;;;13.94;;
14890;SDS011;7537;48.014;11.590;2023-02-28T08:46:08;14.74;;;11.46;;
14890;SDS011;7537;48.014;11.590;2023-02-28T08:51:37;15.81;;;13.74;;
14890;SDS011;7537;48.014;11.590;2023-02-28T08:57:05;18.62;;;14.71;;
14890;SDS011;7537;48.014;11.590;2023-02-28T09:02:36;21.12;;;14.98;;
14890;SDS011;7537;48.014;11.590;2023-02-28T09:08:03;21.26;;;15.73;;
14890;SDS011;7537;48.014;11.590;2023-02-28T09:13:34;16.17;;;14.02;;
14890;SDS011;7537;48.014;11.590;2023-02-28T09:19:02;18.76;;;13.07;;
14890;SDS011;7537;48.014;11.590;2023-02-28T09:24:33;16.77;;;14.38;;
14890;SDS011;7537;48.014;11.590;2023-02-28T09:30:01;20.19;;;13.94;;
14890;SDS011;7537;48.014;11.590;2023-02-28T09:35:28;19.01;;;14.70;;
14890;SDS011;7537;48.014;11.590;2023-02-28T09:40:56;17.24;;;15.14;;
14890;SDS011;7537;48.014;11.590;2023-02-28T09:46:28;16.24;;;13.14;;
14890;SDS011;7537;48.014;11.590;2023-02-28T09:51:57;15.17;;;11.62;;
14890;SDS011;7537;48.014;11.590;2023-02-28T09:57:27;23.31;;;13.43;;
14890;SDS011;7537;48.014;11.590;2023-02-28T10:03:17;18.61;;;13.24;;
14890;SDS011;7537;48.014;11.590;2023-02-28T10:08:50;15.88;;;13.38;;
14890;SDS011;7537;48.014;11.590;2023-02-28T10:14:20;21.03;;;15.61;;
14890;SDS011;7537;48.014;11.590;2023-02-28T10:19:50;18.13;;;13.72;;
14890;SDS011;7537;48.014;11.590;2023-02-28T10:25:21;15.73;;;13.06;;
14890;SDS011;7537;48.014;11.590;2023-02-28T10:30:50;16.75;;;13.21;;
14890;SDS011;7537;48.014;11.590;2023-02-28T10:36:19;12.54;;;9.48;;
14890;SDS011;7537;48.014;11.590;2023-02-28T10:41:46;15.64;;;12.72;;
14890;SDS011;7537;48.014;11.590;2023-02-28T10:47:14;14.52;;;9.14;;
14890;SDS011;7537;48.014;11.590;2023-02-28T10:52:43;16.23;;;13.32;;
14890;SDS011;7537;48.014;11.590;2023-02-28T10:58:21;16.26;;;13.69;;
14890;SDS011;7537;48.014;11.590;2023-02-28T11:03:52;15.91;;;12.63;;
14890;SDS011;7537;48.014;11.590;2023-02-28T11:09:22;12.31;;;9.42;;
14890;SDS011;7537;48.014;11.590;2023-02-28T11:14:50;17.76;;;14.44;;
14890;SDS011;7537;48.014;11.590;2023-02-28T11:20:20;16.77;;;14.24;;
14890;SDS011;7537;48.014;11.590;2023-02-28T11:25:49;17.59;;;14.12;;
14890;SDS011;7537;48.014;11.590;2023-02-28T11:31:18;17.97;;;14.71;;
14890;SDS011;7537;48.014;11.590;2023-02-28T11:36:45;20.58;;;15.00;;
14890;SDS011;7537;48.014;11.590;2023-02-28T11:42:23;16.37;;;13.56;;
14890;SDS011;7537;48.014;11.590;2023-02-28T11:47:56;14.81;;;11.45;;
14890;SDS011;7537;48.014;11.590;2023-02-28T11:53:31;16.97;;;14.18;;
14890;SDS011;7537;48.014;11.590;2023-02-28T11:59:10;15.24;;;13.65;;
14890;SDS011;7537;48.014;11.590;2023-02-28T12:04:47;15.86;;;13.95;;
14890;SDS011;7537;48.014;11.590;2023-02-28T12:10:21;14.56;;;12.34;;
14890;SDS011;7537;48.014;11.590;2023-02-28T12:15:59;16.66;;;14.85;;
14890;SDS011;7537;48.014;11.590;2023-02-28T12:21:29;16.74;;;13.93;;
14890;SDS011;7537;48.014;11.590;2023-02-28T12:27:00;14.95;;;12.67;;
14890;SDS011;7537;48.014;11.590;2023-02-28T12:32:29;14.13;;;12.46;;
14890;SDS011;7537;48.014;11.590;2023-02-28T12:37:59;13.40;;;12.53;;
14890;SDS011;7537;48.014;11.590;2023-02-28T12:43:30;20.21;;;13.17;;
14890;SDS011;7537;48.014;11.590;2023-02-28T12:49:00;14.00;;;11.79;;
14890;SDS011;7537;48.014;11.590;2023-02-28T12:54:29;15.55;;;13.37;;
14890;SDS011;7537;48.014;11.590;2023-02-28T13:00:04;15.93;;;13.05;;
14890;SDS011;7537;48.014;11.590;2023-02-28T13:05:41;16.44;;;12.87;;
14890;SDS011;7537;48.014;11.590;2023-02-28T13:11:23;13.33;;;11.94;;
14890;SDS011;7537;48.014;11.590;2023-02-28T13:16:54;16.36;;;12.46;;
14890;SDS011;7537;48.014;11.590;2023-02-28T13:22:37;15.21;;;12.95;;
14890;SDS011;7537;48.014;11.590;2023-02-28T13:28:09;16.54;;;13.88;;
14890;SDS011;7537;48.014;11.590;2023-02-28T13:33:37;14.32;;;14.10;;
14890;SDS011;7537;48.014;11.590;2023-02-28T13:39:47;15.39;;;12.92;;
14890;SDS011;7537;48.014;11.590;2023-02-28T13:45:22;14.63;;;14.16;;
14890;SDS011;7537;48.014;11.590;2023-02-28T13:50:50;17.41;;;12.37;;
14890;SDS011;7537;48.014;11.590;2023-02-28T13:56:21;13.86;;;12.77;;
14890;SDS011;7537;48.014;11.590;2023-02-28T14:01:53;15.10;;;12.45;;
14890;SDS011;7537;48.014;11.590;2023-02-28T14:07:27;12.29;;;11.79;;
14890;SDS011;7537;48.014;11.590;2023-02-28T14:12:57;15.52;;;11.96;;
14890;SDS011;7537;48.014;11.590;2023-02-28T14:18:26;13.03;;;9.89;;
14890;SDS011;7537;48.014;11.590;2023-02-28T14:30:01;13.63;;;12.98;;
14890;SDS011;7537;48.014;11.590;2023-02-28T14:35:39;15.56;;;12.38;;
14890;SDS011;7537;48.014;11.590;2023-02-28T14:41:12;14.94;;;11.07;;
14890;SDS011;7537;48.014;11.590;2023-02-28T14:46:42;23.21;;;13.62;;
14890;SDS011;7537;48.014;11.590;2023-02-28T14:52:12;18.10;;;13.48;;
14890;SDS011;7537;48.014;11.590;2023-02-28T14:57:51;17.07;;;13.62;;
14890;SDS011;7537;48.014;11.590;2023-02-28T15:03:20;19.56;;;14.21;;
14890;SDS011;7537;48.014;11.590;2023-02-28T15:09:08;16.38;;;14.93;;
14890;SDS011;7537;48.014;11.590;2023-02-28T15:14:35;17.91;;;13.18;;
14890;SDS011;7537;48.014;11.590;2023-02-28T15:20:10;16.66;;;14.70;;
14890;SDS011;7537;48.014;11.590;2023-02-28T15:25:38;16.86;;;14.07;;
14890;SDS011;7537;48.014;11.590;2023-02-28T15:31:19;19.76;;;15.63;;
14890;SDS011;7537;48.014;11.590;2023-02-28T15:36:47;18.11;;;15.48;;
14890;SDS011;7537;48.014;11.590;2023-02-28T15:42:18;21.99;;;15.28;;
14890;SDS011;7537;48.014;11.590;2023-02-28T15:47:46;15.89;;;13.83;;
14890;SDS011;7537;48.014;11.590;2023-02-28T15:53:15;17.18;;;14.53;;
14890;SDS011;7537;48.014;11.590;2023-02-28T15:58:43;21.59;;;15.51;;
14890;SDS011;7537;48.014;11.590;2023-02-28T16:04:14;17.21;;;15.34;;
14890;SDS011;7537;48.014;11.590;2023-02-28T16:09:50;20.29;;;16.62;;
14890;SDS011;7537;48.014;11.590;2023-02-28T16:15:18;18.62;;;15.31;;
14890;SDS011;7537;48.014;11.590;2023-02-28T16:20:48;20.24;;;14.97;;
14890;SDS011;7537;48.014;11.590;2023-02-28T16:26:18;17.56;;;16.04;;
14890;SDS011;7537;48.014;11.590;2023-02-28T16:31:46;23.58;;;16.15;;
14890;SDS011;7537;48.014;11.590;2023-02-28T16:37:14;20.48;;;16.06;;
14890;SDS011;7537;48.014;11.590;2023-02-28T16:42:43;17.72;;;15.34;;
14890;SDS011;7537;48.014;11.590;2023-02-28T16:48:11;17.48;;;15.89;;
14890;SDS011;7537;48.014;11.590;2023-02-28T16:53:40;22.68;;;16.72;;
14890;SDS011;7537;48.014;11.590;2023-02-28T16:59:08;21.92;;;16.90;;
14890;SDS011;7537;48.014;11.590;2023-02-28T17:04:36;20.25;;;15.56;;
14890;SDS011;7537;48.014;11.590;2023-02-28T17:10:11;21.89;;;16.16;;
14890;SDS011;7537;48.014;11.590;2023-02-28T17:15:40;21.44;;;17.04;;
14890;SDS011;7537;48.014;11.590;2023-02-28T17:21:10;18.14;;;14.42;;
14890;SDS011;7537;48.014;11.590;2023-02-28T17:26:40;18.18;;;15.40;;
14890;SDS011;7537;48.014;11.590;2023-02-28T17:32:10;23.23;;;15.32;;
14890;SDS011;7537;48.014;11.590;2023-02-28T17:37:42;22.41;;;16.49;;
14890;SDS011;7537;48.014;11.590;2023-02-28T17:43:09;15.39;;;13.99;;
14890;SDS011;7537;48.014;11.590;2023-02-28T17:48:37;20.49;;;16.27;;
14890;SDS011;7537;48.014;11.590;2023-02-28T17:54:04;18.75;;;16.06;;
14890;SDS011;7537;48.014;11.590;2023-02-28T17:59:32;20.22;;;15.61;;
14890;SDS011;7537;48.014;11.590;2023-02-28T18:05:00;19.94;;;16.05;;
14890;SDS011;7537;48.014;11.590;2023-02-28T18:10:31;18.68;;;15.07;;
14890;SDS011;7537;48.014;11.590;2023-02-28T18:15:58;25.55;;;18.48;;
14890;SDS011;7537;48.014;11.590;2023-02-28T18:21:28;23.32;;;17.37;;
14890;SDS011;7537;48.014;11.590;2023-02-28T18:26:56;20.78;;;16.47;;
14890;SDS011;7537;48.014;11.590;2023-02-28T18:32:24;24.81;;;16.64;;
14890;SDS011;7537;48.014;11.590;2023-02-28T18:37:51;19.90;;;16.40;;
14890;SDS011;7537;48.014;11.590;2023-02-28T18:43:19;20.77;;;17.23;;
14890;SDS011;7537;48.014;11.590;2023-02-28T18:48:47;22.46;;;17.43;;
14890;SDS011;7537;48.014;11.590;2023-02-28T18:54:15;20.12;;;16.98;;
14890;SDS011;7537;48.014;11.590;2023-02-28T18:59:42;21.63;;;17.43;;
14890;SDS011;7537;48.014;11.590;2023-02-28T19:05:12;24.13;;;19.86;;
14890;SDS011;7537;48.014;11.590;2023-02-28T19:10:43;23.11;;;17.03;;
14890;SDS011;7537;48.014;11.590;2023-02-28T19:16:11;24.90;;;18.82;;
14890;SDS011;7537;48.014;11.590;2023-02-28T19:21:40;26.33;;;19.81;;
14890;SDS011;7537;48.014;11.590;2023-02-28T19:27:07;25.10;;;20.27;;
14890;SDS011;7537;48.014;11.590;2023-02-28T19:32:35;25.77;;;18.49;;
14890;SDS011;7537;48.014;11.590;2023-02-28T19:38:03;28.92;;;21.43;;
14890;SDS011;7537;48.014;11.590;2023-02-28T19:43:30;28.06;;;19.47;;
14890;SDS011;7537;48.014;11.590;2023-02-28T19:49:00;26.32;;;19.90;;
14890;SDS011;7537;48.014;11.590;2023-02-28T19:54:28;24.59;;;19.47;;
14890;SDS011;7537;48.014;11.590;2023-02-28T19:59:56;31.69;;;25.47;;
14890;SDS011;7537;48.014;11.590;2023-02-28T20:05:23;30.97;;;24.42;;
14890;SDS011;7537;48.014;11.590;2023-02-28T20:10:54;30.29;;;22.87;;
14890;SDS011;7537;48.014;11.590;2023-02-28T20:16:22;28.68;;;20.93;;
14890;SDS011;7537;48.014;11.590;2023-02-28T20:21:49;26.31;;;20.11;;
14890;SDS011;7537;48.014;11.590;2023-02-28T20:27:17;34.41;;;24.16;;
14890;SDS011;7537;48.014;11.590;2023-02-28T20:32:44;30.66;;;23.33;;
14890;SDS011;7537;48.014;11.590;2023-02-28T20:38:12;28.61;;;21.85;;
14890;SDS011;7537;48.014;11.590;2023-02-28T20:43:39;29.52;;;22.70;;
14890;SDS011;7537;48.014;11.590;2023-02-28T20:49:07;26.53;;;21.55;;
14890;SDS011;7537;48.014;11.590;2023-02-28T20:54:35;23.05;;;19.57;;
14890;SDS011;7537;48.014;11.590;2023-02-28T21:00:03;24.64;;;19.48;;
14890;SDS011;7537;48.014;11.590;2023-02-28T21:05:32;28.88;;;20.80;;
14890;SDS011;7537;48.014;11.590;2023-02-28T21:11:06;27.15;;;19.35;;
14890;SDS011;7537;48.014;11.590;2023-02-28T21:16:34;23.83;;;18.96;;
14890;SDS011;7537;48.014;11.590;2023-02-28T21:22:01;25.42;;;18.81;;
14890;SDS011;7537;48.014;11.590;2023-02-28T21:27:29;26.36;;;18.79;;
14890;SDS011;7537;48.014;11.590;2023-02-28T21:32:56;23.64;;;17.14;;
14890;SDS011;7537;48.014;11.590;2023-02-28T21:38:24;24.45;;;16.74;;
14890;SDS011;7537;48.014;11.590;2023-02-28T21:43:52;22.85;;;17.00;;
14890;SDS011;7537;48.014;11.590;2023-02-28T21:49:19;22.18;;;16.86;;
14890;SDS011;7537;48.014;11.590;2023-02-28T21:54:47;18.83;;;16.45;;
14890;SDS011;7537;48.014;11.590;2023-02-28T22:00:15;22.99;;;16.09;;
14890;SDS011;7537;48.014;11.590;2023-02-28T22:05:43;22.62;;;17.56;;
14890;SDS011;7537;48.014;11.590;2023-02-28T22:11:14;21.06;;;15.64;;
14890;SDS011;7537;48.014;11.590;2023-02-28T22:16:42;20.71;;;9.94;;
14890;SDS011;7537;48.014;11.590;2023-02-28T22:22:13;21.21;;;15.27;;
14890;SDS011;7537;48.014;11.590;2023-02-28T22:27:41;26.66;;;16.76;;
14890;SDS011;7537;48.014;11.590;2023-02-28T22:33:10;20.67;;;16.31;;
14890;SDS011;7537;48.014;11.590;2023-02-28T22:38:38;23.40;;;17.18;;
14890;SDS011;7537;48.014;11.590;2023-02-28T22:44:06;19.37;;;16.34;;
14890;SDS011;7537;48.014;11.590;2023-02-28T22:49:34;21.04;;;16.31;;
14890;SDS011;7537;48.014;11.590;2023-02-28T22:55:04;24.21;;;16.94;;
14890;SDS011;7537;48.014;11.590;2023-02-28T23:00:32;21.02;;;14.51;;
14890;SDS011;7537;48.014;11.590;2023-02-28T23:06:00;20.71;;;15.81;;
14890;SDS011;7537;48.014;11.590;2023-02-28T23:11:32;19.71;;;15.43;;
14890;SDS011;7537;48.014;11.590;2023-02-28T23:17:00;18.42;;;15.59;;
14890;SDS011;7537;48.014;11.590;2023-02-28T23:22:28;22.75;;;16.91;;
14890;SDS011;7537;48.014;11.590;2023-02-28T23:27:55;22.13;;;16.56;;
14890;SDS011;7537;48.014;11.590;2023-02-28T23:33:22;23.54;;;18.41;;
14890;SDS011;7537;48.014;11.590;2023-02-28T23:38:50;21.51;;;17.22;;
14890;SDS011;7537;48.014;11.590;2023-02-28T23:44:20;20.45;;;15.67;;
14890;SDS011;7537;48.014;11.590;2023-02-28T23:49:47;22.77;;;16.44;;
14890;SDS011;7537;48.014;11.590;2023-02-28T23:55:14;22.34;;;15.69;;
